sensor_id;sensor_type;location;lat;lon;timestamp;P1;durP1;ratioP1;P2;durP2;ratioP2
38693;SDS011;24447;43.460;25.744;2023-04-24T00:01:29;9.23;;;3.42;;
38693;SDS011;24447;43.460;25.744;2023-04-24T00:03:56;13.70;;;4.93;;
38693;SDS011;24447;43.460;25.744;2023-04-24T00:06:24;10.40;;;3.75;;
38693;SDS011;24447;43.460;25.744;2023-04-24T00:08:58;13.00;;;5.72;;
38693;SDS011;24447;43.460;25.744;2023-04-24T00:11:25;9.77;;;4.35;;
38693;SDS011;24447;43.460;25.744;2023-04-24T00:13:51;12.52;;;4.63;;
38693;SDS011;24447;43.460;25.744;2023-04-24T00:16:17;14.88;;;6.32;;
38693;SDS011;24447;43.460;25.744;2023-04-24T00:18:43;12.60;;;4.00;;
38693;SDS011;24447;43.460;25.744;2023-04-24T00:21:10;12.68;;;5.03;;
38693;SDS011;24447;43.460;25.744;2023-04-24T00:23:36;9.57;;;4.38;;
38693;SDS011;24447;43.460;25.744;2023-04-24T00:26:02;10.85;;;4.57;;
38693;SDS011;24447;43.460;25.744;2023-04-24T00:28:28;12.88;;;4.18;;
38693;SDS011;24447;43.460;25.744;2023-04-24T00:30:54;11.07;;;4.80;;
38693;SDS011;24447;43.460;25.744;2023-04-24T00:33:20;9.00;;;4.13;;
38693;SDS011;24447;43.460;25.744;2023-04-24T00:35:46;9.15;;;4.18;;
38693;SDS011;24447;43.460;25.744;2023-04-24T00:38:11;10.68;;;5.00;;
38693;SDS011;24447;43.460;25.744;2023-04-24T00:40:37;14.43;;;4.82;;
38693;SDS011;24447;43.460;25.744;2023-04-24T00:43:03;9.52;;;4.50;;
38693;SDS011;24447;43.460;25.744;2023-04-24T00:45:29;8.75;;;4.30;;
38693;SDS011;24447;43.460;25.744;2023-04-24T00:47:56;10.48;;;4.32;;
38693;SDS011;24447;43.460;25.744;2023-04-24T00:50:22;11.05;;;4.25;;
38693;SDS011;24447;43.460;25.744;2023-04-24T00:52:49;8.35;;;4.70;;
38693;SDS011;24447;43.460;25.744;2023-04-24T00:55:16;10.77;;;4.65;;
38693;SDS011;24447;43.460;25.744;2023-04-24T00:57:42;9.55;;;4.53;;
38693;SDS011;24447;43.460;25.744;2023-04-24T01:00:09;9.55;;;3.97;;
38693;SDS011;24447;43.460;25.744;2023-04-24T01:02:37;12.18;;;4.00;;
38693;SDS011;24447;43.460;25.744;2023-04-24T01:05:06;13.23;;;5.32;;
38693;SDS011;24447;43.460;25.744;2023-04-24T01:07:33;11.73;;;4.50;;
38693;SDS011;24447;43.460;25.744;2023-04-24T01:10:00;16.23;;;4.95;;
38693;SDS011;24447;43.460;25.744;2023-04-24T01:12:26;13.93;;;5.28;;
38693;SDS011;24447;43.460;25.744;2023-04-24T01:14:52;8.02;;;4.28;;
38693;SDS011;24447;43.460;25.744;2023-04-24T01:17:19;11.52;;;4.45;;
38693;SDS011;24447;43.460;25.744;2023-04-24T01:19:46;11.00;;;4.60;;
38693;SDS011;24447;43.460;25.744;2023-04-24T01:22:15;15.02;;;4.95;;
38693;SDS011;24447;43.460;25.744;2023-04-24T01:24:42;9.48;;;4.45;;
38693;SDS011;24447;43.460;25.744;2023-04-24T01:27:08;13.57;;;4.10;;
38693;SDS011;24447;43.460;25.744;2023-04-24T01:29:35;11.30;;;4.72;;
38693;SDS011;24447;43.460;25.744;2023-04-24T01:32:02;11.55;;;4.53;;
38693;SDS011;24447;43.460;25.744;2023-04-24T01:34:28;10.38;;;4.57;;
38693;SDS011;24447;43.460;25.744;2023-04-24T01:36:55;12.05;;;4.78;;
38693;SDS011;24447;43.460;25.744;2023-04-24T01:39:21;12.13;;;4.53;;
38693;SDS011;24447;43.460;25.744;2023-04-24T01:41:54;13.65;;;5.50;;
38693;SDS011;24447;43.460;25.744;2023-04-24T01:44:20;15.80;;;5.97;;
38693;SDS011;24447;43.460;25.744;2023-04-24T01:46:46;7.45;;;3.80;;
38693;SDS011;24447;43.460;25.744;2023-04-24T01:49:12;10.15;;;5.00;;
38693;SDS011;24447;43.460;25.744;2023-04-24T01:51:38;10.45;;;3.92;;
38693;SDS011;24447;43.460;25.744;2023-04-24T01:54:04;9.50;;;4.25;;
38693;SDS011;24447;43.460;25.744;2023-04-24T01:56:31;15.30;;;4.90;;
38693;SDS011;24447;43.460;25.744;2023-04-24T01:59:02;14.40;;;4.90;;
38693;SDS011;24447;43.460;25.744;2023-04-24T02:01:33;10.25;;;4.20;;
38693;SDS011;24447;43.460;25.744;2023-04-24T02:04:01;11.93;;;5.20;;
38693;SDS011;24447;43.460;25.744;2023-04-24T02:06:27;9.57;;;4.15;;
38693;SDS011;24447;43.460;25.744;2023-04-24T02:08:53;10.73;;;4.40;;
38693;SDS011;24447;43.460;25.744;2023-04-24T02:11:19;16.50;;;5.28;;
38693;SDS011;24447;43.460;25.744;2023-04-24T02:13:45;10.35;;;4.65;;
38693;SDS011;24447;43.460;25.744;2023-04-24T02:16:10;13.00;;;4.90;;
38693;SDS011;24447;43.460;25.744;2023-04-24T02:18:36;11.35;;;3.75;;
38693;SDS011;24447;43.460;25.744;2023-04-24T02:21:02;11.40;;;4.28;;
38693;SDS011;24447;43.460;25.744;2023-04-24T02:23:28;10.50;;;4.30;;
38693;SDS011;24447;43.460;25.744;2023-04-24T02:25:54;12.10;;;4.65;;
38693;SDS011;24447;43.460;25.744;2023-04-24T02:28:20;10.95;;;4.13;;
38693;SDS011;24447;43.460;25.744;2023-04-24T02:30:46;12.98;;;5.00;;
38693;SDS011;24447;43.460;25.744;2023-04-24T02:33:12;11.60;;;4.22;;
38693;SDS011;24447;43.460;25.744;2023-04-24T02:35:38;10.00;;;4.07;;
38693;SDS011;24447;43.460;25.744;2023-04-24T02:38:04;12.52;;;4.80;;
38693;SDS011;24447;43.460;25.744;2023-04-24T02:40:30;19.23;;;6.15;;
38693;SDS011;24447;43.460;25.744;2023-04-24T02:42:56;16.23;;;5.47;;
38693;SDS011;24447;43.460;25.744;2023-04-24T02:45:22;14.77;;;4.78;;
38693;SDS011;24447;43.460;25.744;2023-04-24T02:47:47;13.48;;;4.90;;
38693;SDS011;24447;43.460;25.744;2023-04-24T02:50:13;15.20;;;5.20;;
38693;SDS011;24447;43.460;25.744;2023-04-24T02:52:39;9.38;;;4.65;;
38693;SDS011;24447;43.460;25.744;2023-04-24T02:55:05;10.68;;;5.28;;
38693;SDS011;24447;43.460;25.744;2023-04-24T02:57:33;14.38;;;5.63;;
38693;SDS011;24447;43.460;25.744;2023-04-24T02:59:59;10.32;;;4.65;;
38693;SDS011;24447;43.460;25.744;2023-04-24T03:02:25;18.92;;;4.75;;
38693;SDS011;24447;43.460;25.744;2023-04-24T03:04:51;12.88;;;5.40;;
38693;SDS011;24447;43.460;25.744;2023-04-24T03:07:17;9.63;;;4.13;;
38693;SDS011;24447;43.460;25.744;2023-04-24T03:09:45;9.95;;;4.20;;
38693;SDS011;24447;43.460;25.744;2023-04-24T03:12:12;17.17;;;5.20;;
38693;SDS011;24447;43.460;25.744;2023-04-24T03:14:38;13.90;;;4.82;;
38693;SDS011;24447;43.460;25.744;2023-04-24T03:17:04;15.35;;;4.65;;
38693;SDS011;24447;43.460;25.744;2023-04-24T03:19:30;9.85;;;4.22;;
38693;SDS011;24447;43.460;25.744;2023-04-24T03:21:56;13.55;;;5.07;;
38693;SDS011;24447;43.460;25.744;2023-04-24T03:24:22;16.45;;;6.03;;
38693;SDS011;24447;43.460;25.744;2023-04-24T03:26:48;13.95;;;5.45;;
38693;SDS011;24447;43.460;25.744;2023-04-24T03:29:13;17.35;;;6.28;;
38693;SDS011;24447;43.460;25.744;2023-04-24T03:31:39;17.80;;;6.85;;
38693;SDS011;24447;43.460;25.744;2023-04-24T03:34:05;24.65;;;7.25;;
38693;SDS011;24447;43.460;25.744;2023-04-24T03:36:31;17.83;;;6.28;;
38693;SDS011;24447;43.460;25.744;2023-04-24T03:38:57;14.98;;;6.40;;
38693;SDS011;24447;43.460;25.744;2023-04-24T03:41:23;14.50;;;5.80;;
38693;SDS011;24447;43.460;25.744;2023-04-24T03:43:49;19.77;;;6.38;;
38693;SDS011;24447;43.460;25.744;2023-04-24T03:46:15;22.50;;;7.95;;
38693;SDS011;24447;43.460;25.744;2023-04-24T03:48:41;24.83;;;8.25;;
38693;SDS011;24447;43.460;25.744;2023-04-24T03:51:07;17.85;;;9.05;;
38693;SDS011;24447;43.460;25.744;2023-04-24T03:53:32;21.15;;;8.52;;
38693;SDS011;24447;43.460;25.744;2023-04-24T03:55:58;19.35;;;7.82;;
38693;SDS011;24447;43.460;25.744;2023-04-24T03:58:24;17.27;;;7.13;;
38693;SDS011;24447;43.460;25.744;2023-04-24T04:00:50;15.98;;;5.93;;
38693;SDS011;24447;43.460;25.744;2023-04-24T04:03:16;15.07;;;5.32;;
38693;SDS011;24447;43.460;25.744;2023-04-24T04:05:42;12.50;;;5.35;;
38693;SDS011;24447;43.460;25.744;2023-04-24T04:08:08;8.55;;;4.80;;
38693;SDS011;24447;43.460;25.744;2023-04-24T04:10:34;15.23;;;4.80;;
38693;SDS011;24447;43.460;25.744;2023-04-24T04:13:00;9.48;;;4.55;;
38693;SDS011;24447;43.460;25.744;2023-04-24T04:15:26;9.13;;;4.75;;
38693;SDS011;24447;43.460;25.744;2023-04-24T04:17:52;12.68;;;4.35;;
38693;SDS011;24447;43.460;25.744;2023-04-24T04:20:17;10.07;;;5.35;;
38693;SDS011;24447;43.460;25.744;2023-04-24T04:22:43;11.25;;;4.15;;
38693;SDS011;24447;43.460;25.744;2023-04-24T04:25:09;13.77;;;5.50;;
38693;SDS011;24447;43.460;25.744;2023-04-24T04:27:36;14.40;;;4.20;;
38693;SDS011;24447;43.460;25.744;2023-04-24T04:30:05;7.57;;;3.58;;
38693;SDS011;24447;43.460;25.744;2023-04-24T04:32:31;12.82;;;3.83;;
38693;SDS011;24447;43.460;25.744;2023-04-24T04:35:01;8.20;;;3.50;;
38693;SDS011;24447;43.460;25.744;2023-04-24T04:37:30;14.75;;;2.90;;
38693;SDS011;24447;43.460;25.744;2023-04-24T04:40:00;10.57;;;4.15;;
38693;SDS011;24447;43.460;25.744;2023-04-24T04:42:26;9.00;;;3.28;;
38693;SDS011;24447;43.460;25.744;2023-04-24T04:44:53;11.88;;;4.45;;
38693;SDS011;24447;43.460;25.744;2023-04-24T04:47:20;9.73;;;4.18;;
38693;SDS011;24447;43.460;25.744;2023-04-24T04:49:50;10.32;;;3.60;;
38693;SDS011;24447;43.460;25.744;2023-04-24T04:52:17;16.02;;;4.10;;
38693;SDS011;24447;43.460;25.744;2023-04-24T04:54:43;9.77;;;4.00;;
38693;SDS011;24447;43.460;25.744;2023-04-24T04:57:09;16.75;;;3.25;;
38693;SDS011;24447;43.460;25.744;2023-04-24T04:59:35;10.65;;;4.32;;
38693;SDS011;24447;43.460;25.744;2023-04-24T05:02:02;11.60;;;5.25;;
38693;SDS011;24447;43.460;25.744;2023-04-24T05:04:28;8.30;;;3.45;;
38693;SDS011;24447;43.460;25.744;2023-04-24T05:06:54;16.75;;;4.93;;
38693;SDS011;24447;43.460;25.744;2023-04-24T05:09:19;15.18;;;4.40;;
38693;SDS011;24447;43.460;25.744;2023-04-24T05:11:45;14.73;;;4.60;;
38693;SDS011;24447;43.460;25.744;2023-04-24T05:14:11;13.93;;;4.55;;
38693;SDS011;24447;43.460;25.744;2023-04-24T05:16:37;7.97;;;4.38;;
38693;SDS011;24447;43.460;25.744;2023-04-24T05:19:04;11.77;;;3.25;;
38693;SDS011;24447;43.460;25.744;2023-04-24T05:21:30;14.40;;;4.57;;
38693;SDS011;24447;43.460;25.744;2023-04-24T05:23:56;7.47;;;3.60;;
38693;SDS011;24447;43.460;25.744;2023-04-24T05:26:22;10.77;;;3.47;;
38693;SDS011;24447;43.460;25.744;2023-04-24T05:28:48;3.45;;;2.58;;
38693;SDS011;24447;43.460;25.744;2023-04-24T05:31:14;8.48;;;3.05;;
38693;SDS011;24447;43.460;25.744;2023-04-24T05:33:42;9.43;;;3.05;;
38693;SDS011;24447;43.460;25.744;2023-04-24T05:36:08;6.75;;;2.80;;
38693;SDS011;24447;43.460;25.744;2023-04-24T05:38:34;8.90;;;3.58;;
38693;SDS011;24447;43.460;25.744;2023-04-24T05:41:00;12.18;;;2.78;;
38693;SDS011;24447;43.460;25.744;2023-04-24T05:43:26;7.85;;;3.50;;
38693;SDS011;24447;43.460;25.744;2023-04-24T05:45:52;7.85;;;2.90;;
38693;SDS011;24447;43.460;25.744;2023-04-24T05:48:18;6.10;;;2.70;;
38693;SDS011;24447;43.460;25.744;2023-04-24T05:50:44;5.10;;;3.33;;
38693;SDS011;24447;43.460;25.744;2023-04-24T05:53:12;5.03;;;3.00;;
38693;SDS011;24447;43.460;25.744;2023-04-24T05:55:38;9.27;;;3.50;;
38693;SDS011;24447;43.460;25.744;2023-04-24T05:58:04;9.45;;;4.20;;
38693;SDS011;24447;43.460;25.744;2023-04-24T06:00:30;5.50;;;2.95;;
38693;SDS011;24447;43.460;25.744;2023-04-24T06:02:57;8.93;;;3.30;;
38693;SDS011;24447;43.460;25.744;2023-04-24T06:05:23;8.18;;;3.42;;
38693;SDS011;24447;43.460;25.744;2023-04-24T06:07:50;10.05;;;3.80;;
38693;SDS011;24447;43.460;25.744;2023-04-24T06:10:16;6.97;;;3.13;;
38693;SDS011;24447;43.460;25.744;2023-04-24T06:12:42;9.85;;;3.17;;
38693;SDS011;24447;43.460;25.744;2023-04-24T06:15:08;5.07;;;2.70;;
38693;SDS011;24447;43.460;25.744;2023-04-24T06:17:34;9.25;;;3.80;;
38693;SDS011;24447;43.460;25.744;2023-04-24T06:20:00;7.45;;;3.55;;
38693;SDS011;24447;43.460;25.744;2023-04-24T06:22:28;9.15;;;3.50;;
38693;SDS011;24447;43.460;25.744;2023-04-24T06:24:54;8.27;;;3.42;;
38693;SDS011;24447;43.460;25.744;2023-04-24T06:27:20;7.43;;;3.13;;
38693;SDS011;24447;43.460;25.744;2023-04-24T06:29:46;5.70;;;3.15;;
38693;SDS011;24447;43.460;25.744;2023-04-24T06:32:19;10.02;;;4.13;;
38693;SDS011;24447;43.460;25.744;2023-04-24T06:34:45;6.03;;;2.70;;
38693;SDS011;24447;43.460;25.744;2023-04-24T06:37:10;7.18;;;3.47;;
38693;SDS011;24447;43.460;25.744;2023-04-24T06:39:36;8.07;;;3.25;;
38693;SDS011;24447;43.460;25.744;2023-04-24T06:42:02;15.25;;;4.10;;
38693;SDS011;24447;43.460;25.744;2023-04-24T06:44:28;6.18;;;3.03;;
38693;SDS011;24447;43.460;25.744;2023-04-24T06:46:54;7.30;;;3.47;;
38693;SDS011;24447;43.460;25.744;2023-04-24T06:49:20;5.47;;;2.63;;
38693;SDS011;24447;43.460;25.744;2023-04-24T06:51:46;16.40;;;3.90;;
38693;SDS011;24447;43.460;25.744;2023-04-24T06:54:12;6.05;;;3.60;;
38693;SDS011;24447;43.460;25.744;2023-04-24T06:56:38;6.93;;;3.30;;
38693;SDS011;24447;43.460;25.744;2023-04-24T06:59:03;7.50;;;3.00;;
38693;SDS011;24447;43.460;25.744;2023-04-24T07:01:29;5.50;;;3.20;;
38693;SDS011;24447;43.460;25.744;2023-04-24T07:03:55;10.90;;;3.53;;
38693;SDS011;24447;43.460;25.744;2023-04-24T07:06:21;5.80;;;3.10;;
38693;SDS011;24447;43.460;25.744;2023-04-24T07:08:48;7.70;;;2.55;;
38693;SDS011;24447;43.460;25.744;2023-04-24T07:11:15;4.03;;;2.60;;
38693;SDS011;24447;43.460;25.744;2023-04-24T07:13:40;3.97;;;2.50;;
38693;SDS011;24447;43.460;25.744;2023-04-24T07:16:07;5.55;;;2.70;;
38693;SDS011;24447;43.460;25.744;2023-04-24T07:18:34;4.25;;;3.08;;
38693;SDS011;24447;43.460;25.744;2023-04-24T07:21:01;4.15;;;2.63;;
38693;SDS011;24447;43.460;25.744;2023-04-24T07:23:27;5.05;;;3.05;;
38693;SDS011;24447;43.460;25.744;2023-04-24T07:25:53;6.57;;;4.10;;
38693;SDS011;24447;43.460;25.744;2023-04-24T07:28:19;6.57;;;3.28;;
38693;SDS011;24447;43.460;25.744;2023-04-24T07:30:45;6.55;;;2.95;;
38693;SDS011;24447;43.460;25.744;2023-04-24T07:33:11;5.63;;;3.20;;
38693;SDS011;24447;43.460;25.744;2023-04-24T07:35:38;4.10;;;2.75;;
38693;SDS011;24447;43.460;25.744;2023-04-24T07:38:04;5.40;;;3.00;;
38693;SDS011;24447;43.460;25.744;2023-04-24T07:40:30;5.68;;;2.90;;
38693;SDS011;24447;43.460;25.744;2023-04-24T07:42:56;5.47;;;2.90;;
38693;SDS011;24447;43.460;25.744;2023-04-24T07:45:22;5.55;;;2.63;;
38693;SDS011;24447;43.460;25.744;2023-04-24T07:47:51;5.45;;;3.05;;
38693;SDS011;24447;43.460;25.744;2023-04-24T07:50:17;5.13;;;2.53;;
38693;SDS011;24447;43.460;25.744;2023-04-24T07:52:42;5.35;;;2.60;;
38693;SDS011;24447;43.460;25.744;2023-04-24T07:55:08;5.80;;;2.67;;
38693;SDS011;24447;43.460;25.744;2023-04-24T07:57:34;9.02;;;3.53;;
38693;SDS011;24447;43.460;25.744;2023-04-24T08:00:00;7.68;;;3.50;;
38693;SDS011;24447;43.460;25.744;2023-04-24T08:02:26;32.00;;;13.73;;
38693;SDS011;24447;43.460;25.744;2023-04-24T08:04:52;10.57;;;3.35;;
38693;SDS011;24447;43.460;25.744;2023-04-24T08:07:22;7.03;;;3.15;;
38693;SDS011;24447;43.460;25.744;2023-04-24T08:09:49;5.90;;;3.08;;
38693;SDS011;24447;43.460;25.744;2023-04-24T08:12:14;8.23;;;3.10;;
38693;SDS011;24447;43.460;25.744;2023-04-24T08:14:40;5.47;;;2.97;;
38693;SDS011;24447;43.460;25.744;2023-04-24T08:17:06;5.00;;;3.28;;
38693;SDS011;24447;43.460;25.744;2023-04-24T08:19:32;5.75;;;3.38;;
38693;SDS011;24447;43.460;25.744;2023-04-24T08:21:58;6.22;;;2.95;;
38693;SDS011;24447;43.460;25.744;2023-04-24T08:24:24;7.60;;;3.30;;
38693;SDS011;24447;43.460;25.744;2023-04-24T08:26:50;12.13;;;4.00;;
38693;SDS011;24447;43.460;25.744;2023-04-24T08:29:16;10.48;;;3.58;;
38693;SDS011;24447;43.460;25.744;2023-04-24T08:31:42;10.20;;;4.15;;
38693;SDS011;24447;43.460;25.744;2023-04-24T08:34:09;7.18;;;2.97;;
38693;SDS011;24447;43.460;25.744;2023-04-24T08:36:35;8.02;;;3.53;;
38693;SDS011;24447;43.460;25.744;2023-04-24T08:39:02;7.07;;;3.13;;
38693;SDS011;24447;43.460;25.744;2023-04-24T08:41:27;6.95;;;2.88;;
38693;SDS011;24447;43.460;25.744;2023-04-24T08:43:53;9.15;;;3.10;;
38693;SDS011;24447;43.460;25.744;2023-04-24T08:46:23;6.53;;;3.22;;
38693;SDS011;24447;43.460;25.744;2023-04-24T08:48:50;6.18;;;3.13;;
38693;SDS011;24447;43.460;25.744;2023-04-24T08:51:16;5.55;;;2.90;;
38693;SDS011;24447;43.460;25.744;2023-04-24T08:53:42;11.98;;;3.40;;
38693;SDS011;24447;43.460;25.744;2023-04-24T08:56:09;10.10;;;3.67;;
38693;SDS011;24447;43.460;25.744;2023-04-24T08:58:35;6.53;;;3.03;;
38693;SDS011;24447;43.460;25.744;2023-04-24T09:01:01;9.23;;;3.22;;
38693;SDS011;24447;43.460;25.744;2023-04-24T09:03:27;5.60;;;3.10;;
38693;SDS011;24447;43.460;25.744;2023-04-24T09:05:54;7.30;;;3.25;;
38693;SDS011;24447;43.460;25.744;2023-04-24T09:08:20;4.97;;;2.80;;
38693;SDS011;24447;43.460;25.744;2023-04-24T09:10:49;8.05;;;3.47;;
38693;SDS011;24447;43.460;25.744;2023-04-24T09:13:15;8.57;;;3.05;;
38693;SDS011;24447;43.460;25.744;2023-04-24T09:15:42;6.22;;;2.50;;
38693;SDS011;24447;43.460;25.744;2023-04-24T09:18:08;6.18;;;3.00;;
38693;SDS011;24447;43.460;25.744;2023-04-24T09:20:34;5.35;;;2.80;;
38693;SDS011;24447;43.460;25.744;2023-04-24T09:23:01;4.60;;;3.08;;
38693;SDS011;24447;43.460;25.744;2023-04-24T09:25:36;8.55;;;3.40;;
38693;SDS011;24447;43.460;25.744;2023-04-24T09:28:02;5.65;;;3.25;;
38693;SDS011;24447;43.460;25.744;2023-04-24T09:30:29;11.20;;;3.40;;
38693;SDS011;24447;43.460;25.744;2023-04-24T09:33:14;5.88;;;3.28;;
38693;SDS011;24447;43.460;25.744;2023-04-24T09:35:50;4.72;;;2.92;;
38693;SDS011;24447;43.460;25.744;2023-04-24T09:38:17;8.18;;;3.08;;
38693;SDS011;24447;43.460;25.744;2023-04-24T09:40:43;3.40;;;2.75;;
38693;SDS011;24447;43.460;25.744;2023-04-24T09:43:10;3.83;;;2.45;;
38693;SDS011;24447;43.460;25.744;2023-04-24T09:45:37;6.15;;;3.67;;
38693;SDS011;24447;43.460;25.744;2023-04-24T09:48:04;6.43;;;3.47;;
38693;SDS011;24447;43.460;25.744;2023-04-24T09:50:31;5.47;;;3.13;;
38693;SDS011;24447;43.460;25.744;2023-04-24T09:53:01;5.43;;;2.83;;
38693;SDS011;24447;43.460;25.744;2023-04-24T09:55:28;9.68;;;3.78;;
38693;SDS011;24447;43.460;25.744;2023-04-24T09:57:55;6.38;;;2.80;;
38693;SDS011;24447;43.460;25.744;2023-04-24T10:00:25;9.93;;;2.92;;
38693;SDS011;24447;43.460;25.744;2023-04-24T10:03:02;6.85;;;3.05;;
38693;SDS011;24447;43.460;25.744;2023-04-24T10:10:35;5.25;;;2.88;;
38693;SDS011;24447;43.460;25.744;2023-04-24T10:13:04;5.30;;;3.47;;
38693;SDS011;24447;43.460;25.744;2023-04-24T10:15:30;7.95;;;3.17;;
38693;SDS011;24447;43.460;25.744;2023-04-24T10:17:57;8.13;;;3.28;;
38693;SDS011;24447;43.460;25.744;2023-04-24T10:20:25;8.75;;;3.85;;
38693;SDS011;24447;43.460;25.744;2023-04-24T10:22:53;5.55;;;2.92;;
38693;SDS011;24447;43.460;25.744;2023-04-24T10:25:20;5.43;;;3.33;;
38693;SDS011;24447;43.460;25.744;2023-04-24T10:27:47;4.05;;;2.95;;
38693;SDS011;24447;43.460;25.744;2023-04-24T10:30:14;8.63;;;2.97;;
38693;SDS011;24447;43.460;25.744;2023-04-24T10:32:40;9.50;;;3.05;;
38693;SDS011;24447;43.460;25.744;2023-04-24T10:35:07;4.43;;;2.97;;
38693;SDS011;24447;43.460;25.744;2023-04-24T10:37:35;6.53;;;2.75;;
38693;SDS011;24447;43.460;25.744;2023-04-24T10:40:03;3.97;;;2.75;;
38693;SDS011;24447;43.460;25.744;2023-04-24T10:42:30;8.07;;;3.28;;
38693;SDS011;24447;43.460;25.744;2023-04-24T10:44:56;6.93;;;3.30;;
38693;SDS011;24447;43.460;25.744;2023-04-24T10:47:23;6.15;;;3.28;;
38693;SDS011;24447;43.460;25.744;2023-04-24T10:49:50;7.18;;;3.40;;
38693;SDS011;24447;43.460;25.744;2023-04-24T10:52:17;6.15;;;3.17;;
38693;SDS011;24447;43.460;25.744;2023-04-24T10:54:46;9.05;;;3.30;;
38693;SDS011;24447;43.460;25.744;2023-04-24T10:59:43;5.30;;;3.30;;
38693;SDS011;24447;43.460;25.744;2023-04-24T11:02:09;6.45;;;3.40;;
38693;SDS011;24447;43.460;25.744;2023-04-24T11:04:35;7.05;;;3.10;;
38693;SDS011;24447;43.460;25.744;2023-04-24T11:07:05;5.35;;;3.03;;
38693;SDS011;24447;43.460;25.744;2023-04-24T11:09:31;4.05;;;2.92;;
38693;SDS011;24447;43.460;25.744;2023-04-24T11:17:34;5.72;;;3.17;;
38693;SDS011;24447;43.460;25.744;2023-04-24T11:20:09;4.50;;;2.92;;
38693;SDS011;24447;43.460;25.744;2023-04-24T11:22:37;4.07;;;2.80;;
38693;SDS011;24447;43.460;25.744;2023-04-24T11:25:10;3.85;;;2.50;;
38693;SDS011;24447;43.460;25.744;2023-04-24T11:27:40;8.45;;;3.10;;
38693;SDS011;24447;43.460;25.744;2023-04-24T11:30:08;6.82;;;3.35;;
38693;SDS011;24447;43.460;25.744;2023-04-24T11:32:36;4.32;;;2.67;;
38693;SDS011;24447;43.460;25.744;2023-04-24T11:35:07;5.28;;;3.05;;
38693;SDS011;24447;43.460;25.744;2023-04-24T11:37:40;4.47;;;2.78;;
38693;SDS011;24447;43.460;25.744;2023-04-24T11:40:07;5.47;;;3.17;;
38693;SDS011;24447;43.460;25.744;2023-04-24T11:42:43;5.18;;;2.95;;
38693;SDS011;24447;43.460;25.744;2023-04-24T11:45:10;6.22;;;3.40;;
38693;SDS011;24447;43.460;25.744;2023-04-24T11:47:37;10.10;;;3.33;;
38693;SDS011;24447;43.460;25.744;2023-04-24T11:50:04;3.90;;;3.22;;
38693;SDS011;24447;43.460;25.744;2023-04-24T11:52:32;8.98;;;2.92;;
38693;SDS011;24447;43.460;25.744;2023-04-24T11:54:59;7.40;;;3.22;;
38693;SDS011;24447;43.460;25.744;2023-04-24T11:57:25;3.85;;;2.78;;
38693;SDS011;24447;43.460;25.744;2023-04-24T11:59:53;15.50;;;3.92;;
38693;SDS011;24447;43.460;25.744;2023-04-24T12:02:24;6.13;;;3.22;;
38693;SDS011;24447;43.460;25.744;2023-04-24T12:04:51;6.45;;;2.92;;
38693;SDS011;24447;43.460;25.744;2023-04-24T12:07:18;7.75;;;3.88;;
38693;SDS011;24447;43.460;25.744;2023-04-24T12:09:44;10.13;;;3.67;;
38693;SDS011;24447;43.460;25.744;2023-04-24T12:12:16;6.93;;;3.72;;
38693;SDS011;24447;43.460;25.744;2023-04-24T12:14:50;10.73;;;4.45;;
38693;SDS011;24447;43.460;25.744;2023-04-24T12:17:23;12.25;;;3.45;;
38693;SDS011;24447;43.460;25.744;2023-04-24T12:19:56;6.93;;;3.40;;
38693;SDS011;24447;43.460;25.744;2023-04-24T12:22:27;7.70;;;2.80;;
38693;SDS011;24447;43.460;25.744;2023-04-24T12:27:24;10.00;;;3.58;;
38693;SDS011;24447;43.460;25.744;2023-04-24T12:29:51;4.65;;;3.25;;
38693;SDS011;24447;43.460;25.744;2023-04-24T12:32:24;5.82;;;3.47;;
38693;SDS011;24447;43.460;25.744;2023-04-24T12:34:51;6.38;;;3.15;;
38693;SDS011;24447;43.460;25.744;2023-04-24T12:37:17;8.85;;;3.97;;
38693;SDS011;24447;43.460;25.744;2023-04-24T12:42:26;5.85;;;3.10;;
38693;SDS011;24447;43.460;25.744;2023-04-24T12:44:56;6.65;;;3.20;;
38693;SDS011;24447;43.460;25.744;2023-04-24T12:47:24;8.30;;;3.72;;
38693;SDS011;24447;43.460;25.744;2023-04-24T12:49:50;7.30;;;4.03;;
38693;SDS011;24447;43.460;25.744;2023-04-24T12:52:17;8.00;;;3.72;;
38693;SDS011;24447;43.460;25.744;2023-04-24T12:54:48;9.63;;;4.18;;
38693;SDS011;24447;43.460;25.744;2023-04-24T12:57:14;9.63;;;3.55;;
38693;SDS011;24447;43.460;25.744;2023-04-24T12:59:40;8.02;;;3.90;;
38693;SDS011;24447;43.460;25.744;2023-04-24T13:02:06;7.30;;;3.60;;
38693;SDS011;24447;43.460;25.744;2023-04-24T13:04:34;10.15;;;3.75;;
38693;SDS011;24447;43.460;25.744;2023-04-24T13:07:00;13.40;;;3.85;;
38693;SDS011;24447;43.460;25.744;2023-04-24T13:09:26;6.47;;;3.25;;
38693;SDS011;24447;43.460;25.744;2023-04-24T13:11:52;5.80;;;2.97;;
38693;SDS011;24447;43.460;25.744;2023-04-24T13:14:18;6.38;;;3.38;;
38693;SDS011;24447;43.460;25.744;2023-04-24T13:16:44;6.03;;;3.72;;
38693;SDS011;24447;43.460;25.744;2023-04-24T13:19:09;7.28;;;3.38;;
38693;SDS011;24447;43.460;25.744;2023-04-24T13:21:35;6.55;;;3.78;;
38693;SDS011;24447;43.460;25.744;2023-04-24T13:24:01;5.47;;;2.90;;
38693;SDS011;24447;43.460;25.744;2023-04-24T13:26:29;5.30;;;3.00;;
38693;SDS011;24447;43.460;25.744;2023-04-24T13:28:55;10.27;;;3.78;;
38693;SDS011;24447;43.460;25.744;2023-04-24T13:31:21;8.27;;;3.50;;
38693;SDS011;24447;43.460;25.744;2023-04-24T13:33:47;5.90;;;3.22;;
38693;SDS011;24447;43.460;25.744;2023-04-24T13:36:13;6.13;;;3.58;;
38693;SDS011;24447;43.460;25.744;2023-04-24T13:38:40;7.38;;;3.22;;
38693;SDS011;24447;43.460;25.744;2023-04-24T13:41:06;6.18;;;3.53;;
38693;SDS011;24447;43.460;25.744;2023-04-24T13:43:32;5.82;;;3.35;;
38693;SDS011;24447;43.460;25.744;2023-04-24T13:45:58;9.15;;;3.78;;
38693;SDS011;24447;43.460;25.744;2023-04-24T13:48:26;6.03;;;3.20;;
38693;SDS011;24447;43.460;25.744;2023-04-24T13:50:52;8.43;;;3.40;;
38693;SDS011;24447;43.460;25.744;2023-04-24T13:53:18;5.88;;;3.60;;
38693;SDS011;24447;43.460;25.744;2023-04-24T13:55:44;4.13;;;2.80;;
38693;SDS011;24447;43.460;25.744;2023-04-24T13:58:10;6.68;;;3.47;;
38693;SDS011;24447;43.460;25.744;2023-04-24T14:00:36;8.60;;;3.60;;
38693;SDS011;24447;43.460;25.744;2023-04-24T14:03:02;9.25;;;3.85;;
38693;SDS011;24447;43.460;25.744;2023-04-24T14:05:28;6.30;;;3.47;;
38693;SDS011;24447;43.460;25.744;2023-04-24T14:07:54;5.55;;;3.25;;
38693;SDS011;24447;43.460;25.744;2023-04-24T14:10:20;5.07;;;3.13;;
38693;SDS011;24447;43.460;25.744;2023-04-24T14:12:46;4.05;;;2.85;;
38693;SDS011;24447;43.460;25.744;2023-04-24T14:15:12;7.10;;;3.40;;
38693;SDS011;24447;43.460;25.744;2023-04-24T14:17:38;9.90;;;3.78;;
38693;SDS011;24447;43.460;25.744;2023-04-24T14:20:05;7.05;;;3.72;;
38693;SDS011;24447;43.460;25.744;2023-04-24T14:22:32;7.60;;;3.30;;
38693;SDS011;24447;43.460;25.744;2023-04-24T14:24:58;5.55;;;3.17;;
38693;SDS011;24447;43.460;25.744;2023-04-24T14:27:24;5.07;;;3.28;;
38693;SDS011;24447;43.460;25.744;2023-04-24T14:29:50;4.90;;;2.92;;
38693;SDS011;24447;43.460;25.744;2023-04-24T14:32:16;7.30;;;3.60;;
38693;SDS011;24447;43.460;25.744;2023-04-24T14:34:42;5.60;;;3.55;;
38693;SDS011;24447;43.460;25.744;2023-04-24T14:37:08;7.85;;;3.80;;
38693;SDS011;24447;43.460;25.744;2023-04-24T14:39:34;7.20;;;3.97;;
38693;SDS011;24447;43.460;25.744;2023-04-24T14:42:00;6.15;;;3.50;;
38693;SDS011;24447;43.460;25.744;2023-04-24T14:44:26;4.57;;;3.08;;
38693;SDS011;24447;43.460;25.744;2023-04-24T14:46:52;6.13;;;3.20;;